Terminal Aerodrome Forecast
Issued by NWS Sioux Falls, SD

Home | Current Version | Previous Version | Text Only | Print | Product List | Glossary Off
Versions: 1 2 3 4 5 6 7 8 9 10 11 12 13 14 15 16

000
FTUS43 KFSD 201123
TAFFSD
TAF
KFSD 201123Z 2012/2112 06011KT 4SM SHRA OVC010
      TEMPO 2012/2014 2SM SHRA BKN007
     FM201400 06012G17KT 4SM SHRA OVC008
     FM201700 05012G17KT P6SM VCSH OVC008
     FM210100 01009KT P6SM -SHRA OVC008
     FM210600 32011G15KT P6SM -SHRA OVC008
     FM210900 32013G18KT P6SM OVC006=

USA.gov is the U.S. government's official web portal to all federal, state and local government web resources and services.